Moose Lake, Minnesota
Current Conditions -  °F | °C
As of 4:33 AM on Thursday 27 Nov 2014 (Local Time) from KMZH Reporting Station
Clear Clear  
Wind Chill: -16°   Ceiling: Unl
Heat Index: -4°   Visibility: 10mi
Dew Point: -9°   Wind: 6mph
Humidity: 78%   Direction: 340°NNW
Pressure: 30.44"   Gusts: NA
Location:  46.45°N, 92.76°W
Report Text: KMZH 271033Z AUTO 34005KT 10SM CLR M20/M23 A3044 RMK AO2
Loading
Personal Weather Stations






























Interactive Weather Map New forecast layout! Learn more

10-Day Weather Forecast

Advertisements
Track Severe Weather on mobile